Time;durP1;ratioP1;P1;durP2;ratioP2;P2;SDS_P1;SDS_P2;PMS_P1;PMS_P2;Temp;Humidity;BMP_temperature;BMP_pressure;BME280_temperature;BME280_humidity;BME280_pressure;Samples;Min_cycle;Max_cycle;Signal;HPM_P1;HPM_P2
2021/03/01 00:01:43;;;;;;;;;;;;;;;;;;4989463;28;19952;-72
2021/03/01 00:04:09;;;;;;;;;;;;;;;;;;4990801;28;19980;-72
2021/03/01 00:06:34;;;;;;;;;;;;;;;;;;4988927;28;19926;-72
2021/03/01 00:09:00;;;;;;;;;;;;;;;;;;4985204;28;20003;-72
2021/03/01 00:11:26;;;;;;;;;;;;;;;;;;4989388;28;20371;-72
2021/03/01 00:13:52;;;;;;;;;;;;;;;;;;4989725;28;19925;-72
2021/03/01 00:16:18;;;;;;;;;;;;;;;;;;4989655;28;19925;-72
2021/03/01 00:18:44;;;;;;;;;;;;;;;;;;4989721;28;19926;-72
2021/03/01 00:21:10;;;;;;;;;;;;;;;;;;4990426;28;20296;-72
2021/03/01 00:23:36;;;;;;;;;;;;;;;;;;4982647;28;19934;-71
2021/03/01 00:26:02;;;;;;;;;;;;;;;;;;4990436;28;19952;-72
2021/03/01 00:28:28;;;;;;;;;;;;;;;;;;4988580;28;19933;-72
2021/03/01 00:30:53;;;;;;;;;;;;;;;;;;4990328;28;19925;-72
2021/03/01 00:33:19;;;;;;;;;;;;;;;;;;4989261;28;19930;-72
2021/03/01 00:35:45;;;;;;;;;;;;;;;;;;4989977;28;19984;-71
2021/03/01 00:38:11;;;;;;;;;;;;;;;;;;4990105;28;19926;-72
2021/03/01 00:40:37;;;;;;;;;;;;;;;;;;4973289;28;19926;-72
2021/03/01 00:43:03;;;;;;;;;;;;;;;;;;4970701;28;19926;-72
2021/03/01 00:45:29;;;;;;;;;;;;;;;;;;4968571;28;19926;-72
2021/03/01 00:47:55;;;;;;;;;;;;;;;;;;4970584;28;19929;-71
2021/03/01 00:50:21;;;;;;;;;;;;;;;;;;4969567;28;19930;-72
2021/03/01 00:52:47;;;;;;;;;;;;;;;;;;4970050;28;19937;-72
2021/03/01 00:55:13;;;;;;;;;;;;;;;;;;4972525;28;19926;-72
2021/03/01 00:57:38;;;;;;;;;;;;;;;;;;4966383;28;19926;-72
2021/03/01 01:00:04;;;;;;;;;;;;;;;;;;4970425;28;19937;-72
2021/03/01 01:02:30;;;;;;;;;;;;;;;;;;4968363;28;19926;-72
2021/03/01 01:04:56;;;;;;;;;;;;;;;;;;4970504;28;19926;-72
2021/03/01 01:07:22;;;;;;;;;;;;;;;;;;4969126;28;20383;-72
2021/03/01 01:09:48;;;;;;;;;;;;;;;;;;4969701;28;19949;-72
2021/03/01 01:12:14;;;;;;;;;;;;;;;;;;4967833;28;19934;-72
2021/03/01 01:14:40;;;;;;;;;;;;;;;;;;4968834;28;20053;-72
2021/03/01 01:17:06;;;;;;;;;;;;;;;;;;4970575;28;19933;-72
2021/03/01 01:19:31;;;;;;;;;;;;;;;;;;4968140;28;20016;-72
2021/03/01 01:21:57;;;;;;;;;;;;;;;;;;4970238;28;19926;-72
2021/03/01 01:24:23;;;;;;;;;;;;;;;;;;4968640;28;19927;-72
2021/03/01 01:26:49;;;;;;;;;;;;;;;;;;4971492;28;19926;-72
2021/03/01 01:29:15;;;;;;;;;;;;;;;;;;4970152;28;19937;-72
2021/03/01 01:31:41;;;;;;;;;;;;;;;;;;4973041;28;20069;-72
2021/03/01 01:34:07;;;;;;;;;;;;;;;;;;4974086;28;20383;-72
2021/03/01 01:36:33;;;;;;;;;;;;;;;;;;4980541;28;19933;-72
2021/03/01 01:38:59;;;;;;;;;;;;;;;;;;4992911;28;19948;-72
2021/03/01 01:41:25;;;;;;;;;;;;;;;;;;4972602;28;19934;-72
2021/03/01 01:43:51;;;;;;;;;;;;;;;;;;4964439;28;19938;-72
2021/03/01 01:46:17;;;;;;;;;;;;;;;;;;4959342;28;20295;-72
2021/03/01 01:48:43;;;;;;;;;;;;;;;;;;4972562;28;19926;-72
2021/03/01 01:51:09;;;;;;;;;;;;;;;;;;4979293;28;19933;-72
2021/03/01 01:53:35;;;;;;;;;;;;;;;;;;4978121;28;19926;-72
2021/03/01 01:56:01;;;;;;;;;;;;;;;;;;4982789;28;19932;-72
2021/03/01 01:58:27;;;;;;;;;;;;;;;;;;4979932;28;19930;-72
2021/03/01 02:00:53;;;;;;;;;;;;;;;;;;4974246;28;19926;-72
2021/03/01 02:03:19;;;;;;;;;;;;;;;;;;4978033;28;19926;-72
2021/03/01 02:05:45;;;;;;;;;;;;;;;;;;4973568;28;19937;-72
2021/03/01 02:08:11;;;;;;;;;;;;;;;;;;4973670;28;20303;-72
2021/03/01 02:10:37;;;;;;;;;;;;;;;;;;4971865;28;19926;-72
2021/03/01 02:13:03;;;;;;;;;;;;;;;;;;4973463;28;20284;-72
2021/03/01 02:15:29;;;;;;;;;;;;;;;;;;4966386;28;19926;-72
2021/03/01 02:17:55;;;;;;;;;;;;;;;;;;4953668;29;19958;-71
2021/03/01 02:20:21;;;;;;;;;;;;;;;;;;4952864;29;19927;-72
2021/03/01 02:22:47;;;;;;;;;;;;;;;;;;4953507;29;19934;-72
2021/03/01 02:25:13;;;;;;;;;;;;;;;;;;4953668;28;20387;-72
2021/03/01 02:27:39;;;;;;;;;;;;;;;;;;4971335;28;19989;-72
2021/03/01 02:30:05;;;;;;;;;;;;;;;;;;4973459;28;19934;-72
2021/03/01 02:32:31;;;;;;;;;;;;;;;;;;4965030;28;19926;-72
2021/03/01 02:34:57;;;;;;;;;;;;;;;;;;4973305;28;19933;-72
2021/03/01 02:37:24;;;;;;;;;;;;;;;;;;4971080;28;19977;-72
2021/03/01 02:39:50;;;;;;;;;;;;;;;;;;4979585;28;19932;-72
2021/03/01 02:42:15;;;;;;;;;;;;;;;;;;4991911;28;19926;-72
2021/03/01 02:44:41;;;;;;;;;;;;;;;;;;4991062;28;20402;-72
2021/03/01 02:47:07;;;;;;;;;;;;;;;;;;4986710;28;20383;-72
2021/03/01 02:49:33;;;;;;;;;;;;;;;;;;4990525;28;19925;-72
2021/03/01 02:51:59;;;;;;;;;;;;;;;;;;4992510;28;20491;-72
2021/03/01 02:54:25;;;;;;;;;;;;;;;;;;4990531;28;19930;-72
2021/03/01 02:56:51;;;;;;;;;;;;;;;;;;4991672;28;20327;-72
2021/03/01 02:59:17;;;;;;;;;;;;;;;;;;4980924;28;19980;-72
2021/03/01 03:01:43;;;;;;;;;;;;;;;;;;4998381;28;19988;-72
2021/03/01 03:04:09;;;;;;;;;;;;;;;;;;4972654;28;19930;-72
2021/03/01 03:06:35;;;;;;;;;;;;;;;;;;4970693;28;20363;-72
2021/03/01 03:09:01;;;;;;;;;;;;;;;;;;4972497;28;20380;-72
2021/03/01 03:11:27;;;;;;;;;;;;;;;;;;4970615;28;19926;-72
2021/03/01 03:13:53;;;;;;;;;;;;;;;;;;4972163;28;19933;-72
2021/03/01 03:16:19;;;;;;;;;;;;;;;;;;4971317;28;19968;-72
2021/03/01 03:18:44;;;;;;;;;;;;;;;;;;4970693;28;19930;-71
2021/03/01 03:21:10;;;;;;;;;;;;;;;;;;4972129;28;19926;-72
2021/03/01 03:23:36;;;;;;;;;;;;;;;;;;4970161;28;19926;-72
2021/03/01 03:26:02;;;;;;;;;;;;;;;;;;4972384;28;19926;-72
2021/03/01 03:28:28;;;;;;;;;;;;;;;;;;4970210;28;19926;-72
2021/03/01 03:30:54;;;;;;;;;;;;;;;;;;4983219;28;19926;-71
2021/03/01 03:33:20;;;;;;;;;;;;;;;;;;4986698;28;19930;-72
2021/03/01 03:35:46;;;;;;;;;;;;;;;;;;4987793;28;19933;-71
2021/03/01 03:38:12;;;;;;;;;;;;;;;;;;4991174;28;19926;-72
2021/03/01 03:40:37;;;;;;;;;;;;;;;;;;4989384;28;19932;-72
2021/03/01 03:43:03;;;;;;;;;;;;;;;;;;4991188;28;20430;-72
2021/03/01 03:45:29;;;;;;;;;;;;;;;;;;4988925;28;19929;-72
2021/03/01 03:47:55;;;;;;;;;;;;;;;;;;4991447;28;19930;-72
2021/03/01 03:50:21;;;;;;;;;;;;;;;;;;4983546;28;19933;-72
2021/03/01 03:52:47;;;;;;;;;;;;;;;;;;4990282;28;20319;-72
2021/03/01 03:55:13;;;;;;;;;;;;;;;;;;4990574;28;19933;-72
2021/03/01 03:57:39;;;;;;;;;;;;;;;;;;4991288;28;19926;-73
2021/03/01 04:00:05;;;;;;;;;;;;;;;;;;5003889;28;19948;-72
2021/03/01 04:02:30;;;;;;;;;;;;;;;;;;4990860;28;19938;-72
2021/03/01 04:04:56;;;;;;;;;;;;;;;;;;4990991;28;19926;-71
2021/03/01 04:07:22;;;;;;;;;;;;;;;;;;4983471;28;20004;-72
2021/03/01 04:09:49;;;;;;;;;;;;;;;;;;4989972;28;19925;-72
2021/03/01 04:12:15;;;;;;;;;;;;;;;;;;4990056;28;20470;-72
2021/03/01 04:14:41;;;;;;;;;;;;;;;;;;4989452;28;19933;-72
2021/03/01 04:17:07;;;;;;;;;;;;;;;;;;4990577;28;19926;-72
2021/03/01 04:19:33;;;;;;;;;;;;;;;;;;4988389;28;19926;-72
2021/03/01 04:21:58;;;;;;;;;;;;;;;;;;4981265;28;19926;-72
2021/03/01 04:24:24;;;;;;;;;;;;;;;;;;4969381;28;20292;-72
2021/03/01 04:26:50;;;;;;;;;;;;;;;;;;4971213;28;19930;-72
2021/03/01 04:29:16;;;;;;;;;;;;;;;;;;4970681;28;20392;-72
2021/03/01 04:31:42;;;;;;;;;;;;;;;;;;4969696;28;20380;-71
2021/03/01 04:34:08;;;;;;;;;;;;;;;;;;4970802;28;19926;-71
2021/03/01 04:36:34;;;;;;;;;;;;;;;;;;4968955;28;19985;-72
2021/03/01 04:39:00;;;;;;;;;;;;;;;;;;4967688;28;20291;-72
2021/03/01 04:41:26;;;;;;;;;;;;;;;;;;4969102;28;19933;-72
2021/03/01 04:43:51;;;;;;;;;;;;;;;;;;4970448;28;19973;-72
2021/03/01 04:46:17;;;;;;;;;;;;;;;;;;4970024;28;19930;-72
2021/03/01 04:48:43;;;;;;;;;;;;;;;;;;4969594;28;20285;-72
2021/03/01 04:51:09;;;;;;;;;;;;;;;;;;4970921;28;19942;-72
2021/03/01 04:53:35;;;;;;;;;;;;;;;;;;4974302;28;19930;-71
2021/03/01 04:56:01;;;;;;;;;;;;;;;;;;4990216;28;19930;-72
2021/03/01 04:58:29;;;;;;;;;;;;;;;;;;4988275;28;19932;-71
2021/03/01 05:00:54;;;;;;;;;;;;;;;;;;4989636;28;19926;-72
2021/03/01 05:03:20;;;;;;;;;;;;;;;;;;4988409;28;19952;-72
2021/03/01 05:05:46;;;;;;;;;;;;;;;;;;4988740;28;19930;-72
2021/03/01 05:08:12;;;;;;;;;;;;;;;;;;4983595;28;19926;-72
2021/03/01 05:10:38;;;;;;;;;;;;;;;;;;4988272;28;19926;-71
2021/03/01 05:13:04;;;;;;;;;;;;;;;;;;4989687;28;20138;-72
2021/03/01 05:15:30;;;;;;;;;;;;;;;;;;4987856;28;19933;-72
2021/03/01 05:17:56;;;;;;;;;;;;;;;;;;4989514;28;19929;-71
2021/03/01 05:20:22;;;;;;;;;;;;;;;;;;4988154;28;20294;-72
2021/03/01 05:22:48;;;;;;;;;;;;;;;;;;4988787;28;19926;-71
2021/03/01 05:25:14;;;;;;;;;;;;;;;;;;4982948;28;19926;-72
2021/03/01 05:27:40;;;;;;;;;;;;;;;;;;4986768;28;19926;-72
2021/03/01 05:30:06;;;;;;;;;;;;;;;;;;4989750;28;19933;-72
2021/03/01 05:32:32;;;;;;;;;;;;;;;;;;4987122;28;20334;-71
2021/03/01 05:34:58;;;;;;;;;;;;;;;;;;4989527;28;19926;-71
2021/03/01 05:37:24;;;;;;;;;;;;;;;;;;4988067;28;19925;-71
2021/03/01 05:39:50;;;;;;;;;;;;;;;;;;4982718;28;19930;-72
2021/03/01 05:42:15;;;;;;;;;;;;;;;;;;4988811;28;19936;-72
2021/03/01 05:44:41;;;;;;;;;;;;;;;;;;4988294;28;19925;-71
2021/03/01 05:47:07;;;;;;;;;;;;;;;;;;4989632;28;19926;-71
2021/03/01 05:49:33;;;;;;;;;;;;;;;;;;4987494;28;20576;-72
2021/03/01 05:51:59;;;;;;;;;;;;;;;;;;4989774;28;19926;-71
2021/03/01 05:54:25;;;;;;;;;;;;;;;;;;4983440;28;19929;-71
2021/03/01 05:56:51;;;;;;;;;;;;;;;;;;4972198;28;20418;-71
2021/03/01 05:59:17;;;;;;;;;;;;;;;;;;4969379;28;19926;-71
2021/03/01 06:01:43;;;;;;;;;;;;;;;;;;4969061;28;19930;-71
2021/03/01 06:04:09;;;;;;;;;;;;;;;;;;4969888;28;20404;-71
2021/03/01 06:06:35;;;;;;;;;;;;;;;;;;4967571;28;19930;-71
2021/03/01 06:09:01;;;;;;;;;;;;;;;;;;4969973;28;19930;-71
2021/03/01 06:11:27;;;;;;;;;;;;;;;;;;4948393;28;19927;-71
2021/03/01 06:13:53;;;;;;;;;;;;;;;;;;4973208;28;19933;-71
2021/03/01 06:16:19;;;;;;;;;;;;;;;;;;4972458;28;20335;-71
2021/03/01 06:18:45;;;;;;;;;;;;;;;;;;4972467;28;19973;-71
2021/03/01 06:21:11;;;;;;;;;;;;;;;;;;4973382;28;19926;-71
2021/03/01 06:23:37;;;;;;;;;;;;;;;;;;4972041;28;19926;-71
2021/03/01 06:26:03;;;;;;;;;;;;;;;;;;4974519;28;19932;-72
2021/03/01 06:28:29;;;;;;;;;;;;;;;;;;4991913;28;19926;-71
2021/03/01 06:30:55;;;;;;;;;;;;;;;;;;4993947;28;19925;-71
2021/03/01 06:33:21;;;;;;;;;;;;;;;;;;4991314;28;20379;-71
2021/03/01 06:35:48;;;;;;;;;;;;;;;;;;4991382;28;19933;-71
2021/03/01 06:38:14;;;;;;;;;;;;;;;;;;4992190;28;19925;-71
2021/03/01 06:40:40;;;;;;;;;;;;;;;;;;4990639;28;20623;-71
2021/03/01 06:43:06;;;;;;;;;;;;;;;;;;4973500;28;19930;-71
2021/03/01 06:45:32;;;;;;;;;;;;;;;;;;4970652;28;19926;-72
2021/03/01 06:47:58;;;;;;;;;;;;;;;;;;4972662;28;19930;-71
2021/03/01 06:50:24;;;;;;;;;;;;;;;;;;4971195;28;19926;-72
2021/03/01 06:52:50;;;;;;;;;;;;;;;;;;4955188;28;20276;-71
2021/03/01 06:55:16;;;;;;;;;;;;;;;;;;4972549;28;19930;-71
2021/03/01 06:57:42;;;;;;;;;;;;;;;;;;4968168;28;19941;-71
2021/03/01 07:00:08;;;;;;;;;;;;;;;;;;4972663;28;20400;-71
2021/03/01 07:02:34;;;;;;;;;;;;;;;;;;4970756;28;20007;-72
2021/03/01 07:05:00;;;;;;;;;;;;;;;;;;4972988;28;20078;-71
2021/03/01 07:07:26;;;;;;;;;;;;;;;;;;4970627;28;19955;-71
2021/03/01 07:09:52;;;;;;;;;;;;;;;;;;4972391;28;19926;-71
2021/03/01 07:12:19;;;;;;;;;;;;;;;;;;4954318;28;19926;-71
2021/03/01 07:14:45;;;;;;;;;;;;;;;;;;4967781;28;20459;-72
2021/03/01 07:17:11;;;;;;;;;;;;;;;;;;4972747;28;20299;-72
2021/03/01 07:19:37;;;;;;;;;;;;;;;;;;4977723;28;19933;-72
2021/03/01 07:22:03;;;;;;;;;;;;;;;;;;4973209;28;19933;-71
2021/03/01 07:24:29;;;;;;;;;;;;;;;;;;4970501;28;19926;-71
2021/03/01 07:26:56;;;;;;;;;;;;;;;;;;4972230;28;19980;-71
2021/03/01 07:29:22;;;;;;;;;;;;;;;;;;4968568;28;20016;-71
2021/03/01 07:31:48;;;;;;;;;;;;;;;;;;4975388;28;19933;-71
2021/03/01 07:34:14;;;;;;;;;;;;;;;;;;4990828;28;19972;-71
2021/03/01 07:36:40;;;;;;;;;;;;;;;;;;4990104;28;19926;-72
2021/03/01 07:39:06;;;;;;;;;;;;;;;;;;4991209;28;19953;-72
2021/03/01 07:41:32;;;;;;;;;;;;;;;;;;4989101;28;19932;-72
2021/03/01 07:43:58;;;;;;;;;;;;;;;;;;4991368;28;19926;-72
2021/03/01 07:46:24;;;;;;;;;;;;;;;;;;4984014;28;19925;-72
2021/03/01 07:48:50;;;;;;;;;;;;;;;;;;4990617;28;19926;-72
2021/03/01 07:51:16;;;;;;;;;;;;;;;;;;4990898;28;19949;-72
2021/03/01 07:53:42;;;;;;;;;;;;;;;;;;4989654;28;20438;-72
2021/03/01 07:56:08;;;;;;;;;;;;;;;;;;4991271;28;19926;-72
2021/03/01 07:58:34;;;;;;;;;;;;;;;;;;4989114;28;20353;-71
2021/03/01 08:00:59;;;;;;;;;;;;;;;;;;4983091;28;19926;-71
2021/03/01 08:03:25;;;;;;;;;;;;;;;;;;4989214;28;19930;-71
2021/03/01 08:05:51;;;;;;;;;;;;;;;;;;4984573;28;19933;-71
2021/03/01 08:08:17;;;;;;;;;;;;;;;;;;4989819;28;19933;-72
2021/03/01 08:10:44;;;;;;;;;;;;;;;;;;4986511;28;19934;-72
2021/03/01 08:13:09;;;;;;;;;;;;;;;;;;4991277;28;19932;-72
2021/03/01 08:15:35;;;;;;;;;;;;;;;;;;4984638;28;20411;-71
2021/03/01 08:18:01;;;;;;;;;;;;;;;;;;4996706;28;19933;-72
2021/03/01 08:20:27;;;;;;;;;;;;;;;;;;4985478;28;19945;-71
2021/03/01 08:22:53;;;;;;;;;;;;;;;;;;4991665;28;19931;-73
2021/03/01 08:25:19;;;;;;;;;;;;;;;;;;4987597;28;19930;-72
2021/03/01 08:27:45;;;;;;;;;;;;;;;;;;4982655;28;19926;-72
2021/03/01 08:30:11;;;;;;;;;;;;;;;;;;4982513;28;19926;-72
2021/03/01 08:32:37;;;;;;;;;;;;;;;;;;4972549;28;19964;-73
2021/03/01 08:35:03;;;;;;;;;;;;;;;;;;4974250;28;19933;-73
2021/03/01 08:37:28;;;;;;;;;;;;;;;;;;4987978;28;20371;-73
2021/03/01 08:39:55;;;;;;;;;;;;;;;;;;4987805;28;20371;-74
2021/03/01 08:42:21;;;;;;;;;;;;;;;;;;4984963;28;19925;-72
2021/03/01 08:44:46;;;;;;;;;;;;;;;;;;4984456;28;19941;-72
2021/03/01 08:47:12;;;;;;;;;;;;;;;;;;4976658;28;19941;-71
2021/03/01 08:49:38;;;;;;;;;;;;;;;;;;4976696;28;19926;-72
2021/03/01 08:52:04;;;;;;;;;;;;;;;;;;4985097;28;19932;-73
2021/03/01 08:54:30;;;;;;;;;;;;;;;;;;4984313;28;20025;-73
2021/03/01 08:57:08;;;;;;;;;;;;;;;;;;4981930;28;19930;-73
2021/03/01 08:59:34;;;;;;;;;;;;;;;;;;4985692;28;20017;-74
2021/03/01 09:02:00;;;;;;;;;;;;;;;;;;4988219;28;20283;-71
2021/03/01 09:04:25;;;;;;;;;;;;;;;;;;4974291;28;19930;-72
2021/03/01 09:06:51;;;;;;;;;;;;;;;;;;4983545;28;20337;-71
2021/03/01 09:09:17;;;;;;;;;;;;;;;;;;4982989;28;20288;-73
2021/03/01 09:11:43;;;;;;;;;;;;;;;;;;4983787;28;19926;-73
2021/03/01 09:14:09;;;;;;;;;;;;;;;;;;4983406;28;19926;-72
2021/03/01 09:16:36;;;;;;;;;;;;;;;;;;4981154;28;20721;-73
2021/03/01 09:19:02;;;;;;;;;;;;;;;;;;4975969;28;20333;-73
2021/03/01 09:21:28;;;;;;;;;;;;;;;;;;4988754;28;19954;-73
2021/03/01 09:23:55;;;;;;;;;;;;;;;;;;4980240;28;20045;-73
2021/03/01 09:26:21;;;;;;;;;;;;;;;;;;4988520;28;19925;-74
2021/03/01 09:28:47;;;;;;;;;;;;;;;;;;4987440;28;19937;-73
2021/03/01 09:31:13;;;;;;;;;;;;;;;;;;4990399;28;19926;-74
2021/03/01 09:33:39;;;;;;;;;;;;;;;;;;4989272;28;19933;-73
2021/03/01 09:36:05;;;;;;;;;;;;;;;;;;4987491;28;20012;-73
2021/03/01 09:38:31;;;;;;;;;;;;;;;;;;4978891;28;20020;-74
2021/03/01 09:40:58;;;;;;;;;;;;;;;;;;4967085;28;19932;-73
2021/03/01 09:43:24;;;;;;;;;;;;;;;;;;4979422;28;20404;-73
2021/03/01 09:45:50;;;;;;;;;;;;;;;;;;4977334;28;20843;-73
2021/03/01 09:48:17;;;;;;;;;;;;;;;;;;4990676;28;20078;-73
2021/03/01 09:50:43;;;;;;;;;;;;;;;;;;4974812;28;19932;-72
2021/03/01 09:53:08;;;;;;;;;;;;;;;;;;4983121;28;19956;-73
2021/03/01 09:55:35;;;;;;;;;;;;;;;;;;4987816;28;20395;-72
2021/03/01 09:58:01;;;;;;;;;;;;;;;;;;4990745;28;19965;-72
2021/03/01 10:00:27;;;;;;;;;;;;;;;;;;4992543;28;19936;-73
2021/03/01 10:02:53;;;;;;;;;;;;;;;;;;4988426;28;19948;-72
2021/03/01 10:05:19;;;;;;;;;;;;;;;;;;4992519;28;20391;-74
2021/03/01 10:07:45;;;;;;;;;;;;;;;;;;4988696;28;19933;-73
2021/03/01 10:10:11;;;;;;;;;;;;;;;;;;4969942;28;19948;-71
2021/03/01 10:12:37;;;;;;;;;;;;;;;;;;4973319;28;19930;-72
2021/03/01 10:15:03;;;;;;;;;;;;;;;;;;4985898;28;19926;-72
2021/03/01 10:17:31;;;;;;;;;;;;;;;;;;4989039;28;20383;-75
2021/03/01 10:19:57;;;;;;;;;;;;;;;;;;4974813;28;19930;-72
2021/03/01 10:22:23;;;;;;;;;;;;;;;;;;4992241;28;19941;-72
2021/03/01 10:24:48;;;;;;;;;;;;;;;;;;4977459;28;19926;-73
2021/03/01 10:27:14;;;;;;;;;;;;;;;;;;4972149;28;19926;-73
2021/03/01 10:29:40;;;;;;;;;;;;;;;;;;4972340;28;19926;-73
2021/03/01 10:32:10;;;;;;;;;;;;;;;;;;4982802;28;19933;-72
2021/03/01 10:34:36;;;;;;;;;;;;;;;;;;4986807;28;20231;-73
2021/03/01 10:37:02;;;;;;;;;;;;;;;;;;4990916;28;19936;-73
2021/03/01 10:39:28;;;;;;;;;;;;;;;;;;4988136;28;20036;-74
2021/03/01 10:41:54;;;;;;;;;;;;;;;;;;4970348;28;19930;-73
2021/03/01 10:44:23;;;;;;;;;;;;;;;;;;4989538;28;19934;-73
2021/03/01 10:46:49;;;;;;;;;;;;;;;;;;4996743;28;19925;-72
2021/03/01 10:49:15;;;;;;;;;;;;;;;;;;4989570;28;20433;-73
2021/03/01 10:51:41;;;;;;;;;;;;;;;;;;4982135;28;19934;-73
2021/03/01 10:54:08;;;;;;;;;;;;;;;;;;4986935;28;19925;-72
2021/03/01 10:56:35;;;;;;;;;;;;;;;;;;4982519;28;20350;-74
2021/03/01 10:59:01;;;;;;;;;;;;;;;;;;4999556;28;19925;-72
2021/03/01 11:01:27;;;;;;;;;;;;;;;;;;5010509;28;19980;-73
2021/03/01 11:03:53;;;;;;;;;;;;;;;;;;4992329;28;19926;-72
2021/03/01 11:06:19;;;;;;;;;;;;;;;;;;4999730;28;20096;-73
2021/03/01 11:08:45;;;;;;;;;;;;;;;;;;4988916;28;20001;-73
2021/03/01 11:11:11;;;;;;;;;;;;;;;;;;4979035;28;20526;-74
2021/03/01 11:13:37;;;;;;;;;;;;;;;;;;4991185;28;20379;-73
2021/03/01 11:16:03;;;;;;;;;;;;;;;;;;4982511;28;19934;-73
2021/03/01 11:18:29;;;;;;;;;;;;;;;;;;4991100;28;19930;-72
2021/03/01 11:20:55;;;;;;;;;;;;;;;;;;4989264;28;19932;-72
2021/03/01 11:23:21;;;;;;;;;;;;;;;;;;4990803;28;20014;-73
2021/03/01 11:25:47;;;;;;;;;;;;;;;;;;4982503;28;20325;-73
2021/03/01 11:28:13;;;;;;;;;;;;;;;;;;4985042;28;19925;-73
2021/03/01 11:30:39;;;;;;;;;;;;;;;;;;4985002;28;19949;-74
2021/03/01 11:33:07;;;;;;;;;;;;;;;;;;4976284;28;19953;-75
2021/03/01 11:35:32;;;;;;;;;;;;;;;;;;4988214;28;19929;-74
2021/03/01 11:37:58;;;;;;;;;;;;;;;;;;4989136;28;19933;-74
2021/03/01 11:40:24;;;;;;;;;;;;;;;;;;4987218;28;20280;-74
2021/03/01 11:42:53;;;;;;;;;;;;;;;;;;4976371;28;19930;-75
2021/03/01 11:45:19;;;;;;;;;;;;;;;;;;4985440;28;19934;-74
2021/03/01 11:47:45;;;;;;;;;;;;;;;;;;4989642;28;19926;-74
2021/03/01 11:50:11;;;;;;;;;;;;;;;;;;4996489;28;20004;-74
2021/03/01 11:52:37;;;;;;;;;;;;;;;;;;4990291;28;20409;-74
2021/03/01 11:55:03;;;;;;;;;;;;;;;;;;4985410;28;19940;-74
2021/03/01 11:57:29;;;;;;;;;;;;;;;;;;4979330;28;20430;-73
2021/03/01 11:59:55;;;;;;;;;;;;;;;;;;4969029;28;19926;-75
2021/03/01 12:02:21;;;;;;;;;;;;;;;;;;4977935;28;20291;-73
2021/03/01 12:04:47;;;;;;;;;;;;;;;;;;4988767;28;20330;-74
2021/03/01 12:07:13;;;;;;;;;;;;;;;;;;4989608;28;19933;-73
2021/03/01 12:09:39;;;;;;;;;;;;;;;;;;4988873;28;19926;-74
2021/03/01 12:12:05;;;;;;;;;;;;;;;;;;4969085;28;19933;-75
2021/03/01 12:14:31;;;;;;;;;;;;;;;;;;4970906;28;19941;-74
2021/03/01 12:16:57;;;;;;;;;;;;;;;;;;4975813;28;20302;-74
2021/03/01 12:19:23;;;;;;;;;;;;;;;;;;4989860;28;20395;-74
2021/03/01 12:21:49;;;;;;;;;;;;;;;;;;4988442;28;19981;-73
2021/03/01 12:24:15;;;;;;;;;;;;;;;;;;4989070;28;19926;-73
2021/03/01 12:26:42;;;;;;;;;;;;;;;;;;4988889;28;19926;-73
2021/03/01 12:29:08;;;;;;;;;;;;;;;;;;4980630;28;19933;-74
2021/03/01 12:31:34;;;;;;;;;;;;;;;;;;4990076;28;19930;-74
2021/03/01 12:34:01;;;;;;;;;;;;;;;;;;4983975;28;20327;-75
2021/03/01 12:36:27;;;;;;;;;;;;;;;;;;4989444;28;19926;-74
2021/03/01 12:38:53;;;;;;;;;;;;;;;;;;4988327;28;19926;-73
2021/03/01 12:41:19;;;;;;;;;;;;;;;;;;4989046;28;20004;-74
2021/03/01 12:43:45;;;;;;;;;;;;;;;;;;4988526;28;20341;-74
2021/03/01 12:46:11;;;;;;;;;;;;;;;;;;4981964;28;20280;-74
2021/03/01 12:48:37;;;;;;;;;;;;;;;;;;4976887;28;19933;-73
2021/03/01 12:51:03;;;;;;;;;;;;;;;;;;5003538;28;19925;-72
2021/03/01 12:53:29;;;;;;;;;;;;;;;;;;5001325;28;20291;-73
2021/03/01 12:55:54;;;;;;;;;;;;;;;;;;4988632;28;19933;-73
2021/03/01 12:58:20;;;;;;;;;;;;;;;;;;4989469;28;19926;-73
2021/03/01 13:00:47;;;;;;;;;;;;;;;;;;4973500;28;19938;-73
2021/03/01 13:03:13;;;;;;;;;;;;;;;;;;4989693;28;19933;-73
2021/03/01 13:05:39;;;;;;;;;;;;;;;;;;4983841;28;19925;-73
2021/03/01 13:08:07;;;;;;;;;;;;;;;;;;4991068;28;19926;-74
2021/03/01 13:10:33;;;;;;;;;;;;;;;;;;4988470;28;19926;-72
2021/03/01 13:12:59;;;;;;;;;;;;;;;;;;4990388;28;19933;-73
2021/03/01 13:15:25;;;;;;;;;;;;;;;;;;4986877;28;19980;-75
2021/03/01 13:17:51;;;;;;;;;;;;;;;;;;4987646;28;20394;-72
2021/03/01 13:20:17;;;;;;;;;;;;;;;;;;4988300;28;20391;-74
2021/03/01 13:22:43;;;;;;;;;;;;;;;;;;4987890;28;19926;-72
2021/03/01 13:25:09;;;;;;;;;;;;;;;;;;4989227;28;19926;-72
2021/03/01 13:27:35;;;;;;;;;;;;;;;;;;4979373;28;19981;-73
2021/03/01 13:30:00;;;;;;;;;;;;;;;;;;4989358;28;19933;-73
2021/03/01 13:32:26;;;;;;;;;;;;;;;;;;4981175;28;19930;-74
2021/03/01 13:34:53;;;;;;;;;;;;;;;;;;4988885;28;19932;-74
2021/03/01 13:37:19;;;;;;;;;;;;;;;;;;4981888;28;19969;-74
2021/03/01 13:39:45;;;;;;;;;;;;;;;;;;4976494;28;19929;-74
2021/03/01 13:42:11;;;;;;;;;;;;;;;;;;4987174;28;20398;-74
2021/03/01 13:44:36;;;;;;;;;;;;;;;;;;4984907;28;19934;-74
2021/03/01 13:47:02;;;;;;;;;;;;;;;;;;4986187;28;19930;-74
2021/03/01 13:49:28;;;;;;;;;;;;;;;;;;4970126;28;19926;-74
2021/03/01 13:51:54;;;;;;;;;;;;;;;;;;4997088;28;19929;-73
2021/03/01 13:54:22;;;;;;;;;;;;;;;;;;4989021;28;19926;-74
2021/03/01 13:56:47;;;;;;;;;;;;;;;;;;4988967;28;20342;-73
2021/03/01 13:59:13;;;;;;;;;;;;;;;;;;4987653;28;19933;-74
2021/03/01 14:01:39;;;;;;;;;;;;;;;;;;4986189;28;19976;-74
2021/03/01 14:04:06;;;;;;;;;;;;;;;;;;4980057;28;19940;-73
2021/03/01 14:06:32;;;;;;;;;;;;;;;;;;4987281;28;19961;-73
2021/03/01 14:08:58;;;;;;;;;;;;;;;;;;4989294;28;19937;-73
2021/03/01 14:11:24;;;;;;;;;;;;;;;;;;4987356;28;20473;-73
2021/03/01 14:13:51;;;;;;;;;;;;;;;;;;4992128;28;19932;-74
2021/03/01 14:16:17;;;;;;;;;;;;;;;;;;4983618;28;19930;-74
2021/03/01 14:18:43;;;;;;;;;;;;;;;;;;4981550;28;19949;-75
2021/03/01 14:21:10;;;;;;;;;;;;;;;;;;4986816;28;19958;-73
2021/03/01 14:23:35;;;;;;;;;;;;;;;;;;4987910;28;19926;-73
2021/03/01 14:26:01;;;;;;;;;;;;;;;;;;4988306;28;19926;-73
2021/03/01 14:28:28;;;;;;;;;;;;;;;;;;4986842;28;19933;-73
2021/03/01 14:30:54;;;;;;;;;;;;;;;;;;4988846;28;19926;-73
2021/03/01 14:33:20;;;;;;;;;;;;;;;;;;4983884;28;19926;-73
2021/03/01 14:35:46;;;;;;;;;;;;;;;;;;4983255;28;19926;-73
2021/03/01 14:38:12;;;;;;;;;;;;;;;;;;4990841;28;19926;-74
2021/03/01 14:40:37;;;;;;;;;;;;;;;;;;4990925;28;19926;-73
2021/03/01 14:43:03;;;;;;;;;;;;;;;;;;4991519;28;20294;-74
2021/03/01 14:45:29;;;;;;;;;;;;;;;;;;4998391;28;19932;-74
2021/03/01 14:47:55;;;;;;;;;;;;;;;;;;4987494;28;19934;-73
2021/03/01 14:50:21;;;;;;;;;;;;;;;;;;4985958;28;19941;-74
2021/03/01 14:52:47;;;;;;;;;;;;;;;;;;4990256;28;19929;-73
2021/03/01 14:55:13;;;;;;;;;;;;;;;;;;4992242;28;19941;-72
2021/03/01 14:57:39;;;;;;;;;;;;;;;;;;4990058;28;19933;-73
2021/03/01 15:00:05;;;;;;;;;;;;;;;;;;4991433;28;19933;-73
2021/03/01 15:02:31;;;;;;;;;;;;;;;;;;4988989;28;19933;-73
2021/03/01 15:04:57;;;;;;;;;;;;;;;;;;4979683;28;20391;-73
2021/03/01 15:07:23;;;;;;;;;;;;;;;;;;4981845;28;19926;-73
2021/03/01 15:09:49;;;;;;;;;;;;;;;;;;4992775;28;20009;-75
2021/03/01 15:12:15;;;;;;;;;;;;;;;;;;4994827;28;20392;-74
2021/03/01 15:14:41;;;;;;;;;;;;;;;;;;4991736;28;20002;-73
2021/03/01 15:17:07;;;;;;;;;;;;;;;;;;4993556;28;20399;-72
2021/03/01 15:19:33;;;;;;;;;;;;;;;;;;4986105;28;19933;-74
2021/03/01 15:21:59;;;;;;;;;;;;;;;;;;4984192;28;20060;-73
2021/03/01 15:24:25;;;;;;;;;;;;;;;;;;4990768;28;19988;-72
2021/03/01 15:26:51;;;;;;;;;;;;;;;;;;4989342;28;19953;-73
2021/03/01 15:29:17;;;;;;;;;;;;;;;;;;4990731;28;19929;-73
2021/03/01 15:31:43;;;;;;;;;;;;;;;;;;4988028;28;19985;-73
2021/03/01 15:34:09;;;;;;;;;;;;;;;;;;4990992;28;19926;-73
2021/03/01 15:36:35;;;;;;;;;;;;;;;;;;4974631;28;19926;-73
2021/03/01 15:39:01;;;;;;;;;;;;;;;;;;4978280;28;19929;-74
2021/03/01 15:41:27;;;;;;;;;;;;;;;;;;4985310;28;20406;-72
2021/03/01 15:43:53;;;;;;;;;;;;;;;;;;4990561;28;19926;-72
2021/03/01 15:46:18;;;;;;;;;;;;;;;;;;4988191;28;19926;-73
2021/03/01 15:48:44;;;;;;;;;;;;;;;;;;4989409;28;19926;-73
2021/03/01 15:51:10;;;;;;;;;;;;;;;;;;4986285;28;19980;-74
2021/03/01 15:53:36;;;;;;;;;;;;;;;;;;4981218;28;19938;-73
2021/03/01 15:56:02;;;;;;;;;;;;;;;;;;4987601;28;20338;-73
2021/03/01 15:58:30;;;;;;;;;;;;;;;;;;4984901;28;19953;-72
2021/03/01 16:00:56;;;;;;;;;;;;;;;;;;4990657;28;19932;-73
2021/03/01 16:03:22;;;;;;;;;;;;;;;;;;4982545;28;19930;-74
2021/03/01 16:05:48;;;;;;;;;;;;;;;;;;4986714;28;19925;-74
2021/03/01 16:08:14;;;;;;;;;;;;;;;;;;4984622;28;20334;-73
2021/03/01 16:10:40;;;;;;;;;;;;;;;;;;4986829;28;19926;-72
2021/03/01 16:13:06;;;;;;;;;;;;;;;;;;4989997;28;19926;-72
2021/03/01 16:15:31;;;;;;;;;;;;;;;;;;4975317;28;19926;-73
2021/03/01 16:17:59;;;;;;;;;;;;;;;;;;4989951;28;19937;-73
2021/03/01 16:20:25;;;;;;;;;;;;;;;;;;4984146;28;20603;-73
2021/03/01 16:22:51;;;;;;;;;;;;;;;;;;4988666;28;19926;-73
2021/03/01 16:25:17;;;;;;;;;;;;;;;;;;4982007;28;20328;-73
2021/03/01 16:27:43;;;;;;;;;;;;;;;;;;4997325;28;19948;-73
2021/03/01 16:30:09;;;;;;;;;;;;;;;;;;4983714;28;20394;-73
2021/03/01 16:32:35;;;;;;;;;;;;;;;;;;4990363;28;19930;-73
2021/03/01 16:35:01;;;;;;;;;;;;;;;;;;4992078;28;19934;-73
2021/03/01 16:37:28;;;;;;;;;;;;;;;;;;4983759;28;19925;-74